sensor_id;sensor_type;location;lat;lon;timestamp;pressure;altitude;pressure_sealevel;temperature;humidity
35694;BME280;21812;55.536;37.664;2023-05-29T00:00:57;100058.94;;;12.30;57.91
35694;BME280;21812;55.536;37.664;2023-05-29T00:03:22;100059.41;;;12.34;58.38
35694;BME280;21812;55.536;37.664;2023-05-29T00:05:48;100059.94;;;12.51;59.11
35694;BME280;21812;55.536;37.664;2023-05-29T00:08:14;100058.44;;;12.70;59.77
35694;BME280;21812;55.536;37.664;2023-05-29T00:10:40;100059.81;;;12.66;58.25
35694;BME280;21812;55.536;37.664;2023-05-29T00:13:06;100063.28;;;12.60;57.86
35694;BME280;21812;55.536;37.664;2023-05-29T00:15:32;100064.06;;;12.54;58.01
35694;BME280;21812;55.536;37.664;2023-05-29T00:17:58;100062.00;;;12.49;60.30
35694;BME280;21812;55.536;37.664;2023-05-29T00:20:23;100056.56;;;12.70;61.56
35694;BME280;21812;55.536;37.664;2023-05-29T00:22:49;100062.59;;;12.79;62.11
35694;BME280;21812;55.536;37.664;2023-05-29T00:25:15;100059.19;;;12.64;60.12
35694;BME280;21812;55.536;37.664;2023-05-29T00:27:41;100076.16;;;12.71;60.65
35694;BME280;21812;55.536;37.664;2023-05-29T00:30:07;100061.22;;;12.55;58.84
35694;BME280;21812;55.536;37.664;2023-05-29T00:32:35;100065.41;;;12.64;58.31
35694;BME280;21812;55.536;37.664;2023-05-29T00:35:01;100061.34;;;12.75;58.94
35694;BME280;21812;55.536;37.664;2023-05-29T00:37:30;100059.09;;;12.79;58.17
35694;BME280;21812;55.536;37.664;2023-05-29T00:39:56;100058.38;;;12.63;57.71
35694;BME280;21812;55.536;37.664;2023-05-29T00:42:22;100061.13;;;12.48;58.03
35694;BME280;21812;55.536;37.664;2023-05-29T00:44:47;100056.28;;;12.30;58.96
35694;BME280;21812;55.536;37.664;2023-05-29T00:47:13;100065.22;;;12.44;59.51
35694;BME280;21812;55.536;37.664;2023-05-29T00:49:39;100060.56;;;12.81;61.71
35694;BME280;21812;55.536;37.664;2023-05-29T00:52:05;100063.41;;;13.08;61.17
35694;BME280;21812;55.536;37.664;2023-05-29T00:54:33;100064.78;;;13.32;58.87
35694;BME280;21812;55.536;37.664;2023-05-29T00:56:59;100066.75;;;13.58;58.92
35694;BME280;21812;55.536;37.664;2023-05-29T00:59:29;100064.31;;;13.70;58.08
35694;BME280;21812;55.536;37.664;2023-05-29T01:01:55;100069.13;;;13.88;57.78
35694;BME280;21812;55.536;37.664;2023-05-29T01:04:23;100063.53;;;13.96;56.92
35694;BME280;21812;55.536;37.664;2023-05-29T01:06:51;100063.19;;;14.26;57.71
35694;BME280;21812;55.536;37.664;2023-05-29T01:09:17;100059.47;;;14.34;56.21
35694;BME280;21812;55.536;37.664;2023-05-29T01:14:37;100064.34;;;13.77;53.45
35694;BME280;21812;55.536;37.664;2023-05-29T01:17:24;100068.84;;;13.69;56.60
35694;BME280;21812;55.536;37.664;2023-05-29T01:25:11;100070.53;;;13.77;55.39
35694;BME280;21812;55.536;37.664;2023-05-29T01:35:11;100084.97;;;12.93;58.03
35694;BME280;21812;55.536;37.664;2023-05-29T01:37:36;100080.88;;;12.97;58.81
35694;BME280;21812;55.536;37.664;2023-05-29T01:40:02;100087.03;;;12.91;56.14
35694;BME280;21812;55.536;37.664;2023-05-29T01:42:31;100087.03;;;12.98;56.59
35694;BME280;21812;55.536;37.664;2023-05-29T01:44:57;100084.28;;;13.19;60.25
35694;BME280;21812;55.536;37.664;2023-05-29T01:47:23;100086.63;;;13.29;59.42
35694;BME280;21812;55.536;37.664;2023-05-29T01:49:51;100083.66;;;13.52;58.47
35694;BME280;21812;55.536;37.664;2023-05-29T01:52:17;100081.69;;;13.81;57.51
35694;BME280;21812;55.536;37.664;2023-05-29T01:54:44;100078.56;;;13.84;57.73
35694;BME280;21812;55.536;37.664;2023-05-29T01:57:10;100085.88;;;14.03;57.22
35694;BME280;21812;55.536;37.664;2023-05-29T01:59:37;100086.72;;;14.37;57.09
35694;BME280;21812;55.536;37.664;2023-05-29T02:02:10;100092.09;;;14.37;55.70
35694;BME280;21812;55.536;37.664;2023-05-29T02:04:37;100085.50;;;14.60;55.49
35694;BME280;21812;55.536;37.664;2023-05-29T02:07:03;100091.06;;;14.38;54.24
35694;BME280;21812;55.536;37.664;2023-05-29T02:09:29;100090.44;;;14.43;55.78
35694;BME280;21812;55.536;37.664;2023-05-29T02:11:56;100090.44;;;14.50;55.52
35694;BME280;21812;55.536;37.664;2023-05-29T02:14:22;100094.38;;;14.54;54.67
35694;BME280;21812;55.536;37.664;2023-05-29T02:16:50;100095.84;;;14.63;55.65
35694;BME280;21812;55.536;37.664;2023-05-29T02:19:20;100086.56;;;14.72;56.02
35694;BME280;21812;55.536;37.664;2023-05-29T02:21:47;100038.78;;;14.34;55.57
35694;BME280;21812;55.536;37.664;2023-05-29T02:24:13;100090.69;;;14.68;55.00
35694;BME280;21812;55.536;37.664;2023-05-29T02:26:39;100102.44;;;14.80;55.10
35694;BME280;21812;55.536;37.664;2023-05-29T02:29:05;100085.28;;;14.95;54.99
35694;BME280;21812;55.536;37.664;2023-05-29T02:31:31;100089.19;;;14.99;55.17
35694;BME280;21812;55.536;37.664;2023-05-29T02:33:57;100088.78;;;14.95;54.72
35694;BME280;21812;55.536;37.664;2023-05-29T02:36:22;100068.97;;;14.76;55.11
35694;BME280;21812;55.536;37.664;2023-05-29T02:38:50;100094.19;;;14.82;55.09
35694;BME280;21812;55.536;37.664;2023-05-29T02:41:16;100087.97;;;14.95;55.53
35694;BME280;21812;55.536;37.664;2023-05-29T02:43:42;100087.97;;;14.88;55.18
35694;BME280;21812;55.536;37.664;2023-05-29T02:46:08;100091.28;;;14.97;55.78
35694;BME280;21812;55.536;37.664;2023-05-29T02:48:34;100097.03;;;15.07;55.51
35694;BME280;21812;55.536;37.664;2023-05-29T02:51:00;100099.06;;;15.18;55.59
35694;BME280;21812;55.536;37.664;2023-05-29T02:53:25;100090.81;;;15.20;55.30
35694;BME280;21812;55.536;37.664;2023-05-29T02:55:51;100106.25;;;15.38;54.95
35694;BME280;21812;55.536;37.664;2023-05-29T02:58:17;100113.66;;;15.49;54.86
35694;BME280;21812;55.536;37.664;2023-05-29T03:00:42;100103.97;;;15.48;54.05
35694;BME280;21812;55.536;37.664;2023-05-29T03:03:08;100110.16;;;15.42;55.38
35694;BME280;21812;55.536;37.664;2023-05-29T03:05:37;100107.31;;;15.30;55.47
35694;BME280;21812;55.536;37.664;2023-05-29T03:08:03;100106.09;;;15.33;56.01
35694;BME280;21812;55.536;37.664;2023-05-29T03:10:29;100108.78;;;15.26;56.04
35694;BME280;21812;55.536;37.664;2023-05-29T03:12:55;100115.53;;;15.49;55.61
35694;BME280;21812;55.536;37.664;2023-05-29T03:15:21;100110.31;;;15.67;55.85
35694;BME280;21812;55.536;37.664;2023-05-29T03:17:47;100113.81;;;15.61;54.80
35694;BME280;21812;55.536;37.664;2023-05-29T03:20:16;100118.47;;;15.34;50.25
35694;BME280;21812;55.536;37.664;2023-05-29T03:22:42;100122.31;;;14.86;51.59
35694;BME280;21812;55.536;37.664;2023-05-29T03:25:08;100129.75;;;14.57;54.88
35694;BME280;21812;55.536;37.664;2023-05-29T03:27:34;100127.44;;;14.41;54.52
35694;BME280;21812;55.536;37.664;2023-05-29T03:30:12;100127.25;;;14.36;52.51
35694;BME280;21812;55.536;37.664;2023-05-29T03:32:38;100123.47;;;14.23;51.63
35694;BME280;21812;55.536;37.664;2023-05-29T03:35:04;100131.34;;;14.25;63.32
35694;BME280;21812;55.536;37.664;2023-05-29T03:37:31;100131.50;;;14.03;53.21
35694;BME280;21812;55.536;37.664;2023-05-29T03:39:57;100130.44;;;13.91;53.40
35694;BME280;21812;55.536;37.664;2023-05-29T03:42:23;100133.94;;;13.85;53.40
35694;BME280;21812;55.536;37.664;2023-05-29T03:44:51;100129.00;;;13.88;52.77
35694;BME280;21812;55.536;37.664;2023-05-29T03:47:17;100139.72;;;13.88;52.45
35694;BME280;21812;55.536;37.664;2023-05-29T03:49:44;100129.56;;;13.84;52.22
35694;BME280;21812;55.536;37.664;2023-05-29T03:52:09;100146.16;;;13.94;52.83
35694;BME280;21812;55.536;37.664;2023-05-29T03:54:35;100142.25;;;14.03;52.52
35694;BME280;21812;55.536;37.664;2023-05-29T03:57:03;100144.31;;;14.08;52.08
35694;BME280;21812;55.536;37.664;2023-05-29T03:59:29;100141.00;;;14.06;50.66
35694;BME280;21812;55.536;37.664;2023-05-29T04:01:54;100141.63;;;14.01;51.98
35694;BME280;21812;55.536;37.664;2023-05-29T04:04:20;100145.56;;;14.05;51.46
35694;BME280;21812;55.536;37.664;2023-05-29T04:06:46;100147.44;;;14.12;51.37
35694;BME280;21812;55.536;37.664;2023-05-29T04:09:11;100145.56;;;14.12;50.72
35694;BME280;21812;55.536;37.664;2023-05-29T04:11:37;100151.13;;;14.11;50.80
35694;BME280;21812;55.536;37.664;2023-05-29T04:14:05;100147.81;;;14.08;51.16
35694;BME280;21812;55.536;37.664;2023-05-29T04:16:32;100136.69;;;14.12;51.07
35694;BME280;21812;55.536;37.664;2023-05-29T04:18:59;100140.38;;;14.11;50.37
35694;BME280;21812;55.536;37.664;2023-05-29T04:21:28;100143.31;;;14.16;54.14
35694;BME280;21812;55.536;37.664;2023-05-29T04:23:54;100146.22;;;14.21;51.64
35694;BME280;21812;55.536;37.664;2023-05-29T04:26:22;100143.75;;;14.26;51.17
35694;BME280;21812;55.536;37.664;2023-05-29T04:28:55;100125.56;;;14.15;50.50
35694;BME280;21812;55.536;37.664;2023-05-29T04:31:25;100143.75;;;14.33;49.50
35694;BME280;21812;55.536;37.664;2023-05-29T04:33:53;100148.50;;;14.37;50.01
35694;BME280;21812;55.536;37.664;2023-05-29T04:36:23;100147.47;;;14.38;49.57
35694;BME280;21812;55.536;37.664;2023-05-29T04:38:55;100154.50;;;14.46;49.97
35694;BME280;21812;55.536;37.664;2023-05-29T04:41:22;100157.25;;;14.59;50.13
35694;BME280;21812;55.536;37.664;2023-05-29T04:43:51;100159.97;;;14.66;48.28
35694;BME280;21812;55.536;37.664;2023-05-29T04:46:18;100153.94;;;14.77;48.99
35694;BME280;21812;55.536;37.664;2023-05-29T04:48:44;100158.28;;;14.92;47.81
35694;BME280;21812;55.536;37.664;2023-05-29T04:51:10;100157.66;;;15.03;47.26
35694;BME280;21812;55.536;37.664;2023-05-29T04:53:40;100163.22;;;15.21;52.96
35694;BME280;21812;55.536;37.664;2023-05-29T04:56:08;100159.88;;;15.46;49.25
35694;BME280;21812;55.536;37.664;2023-05-29T04:58:35;100161.94;;;15.44;46.34
35694;BME280;21812;55.536;37.664;2023-05-29T05:01:03;100159.63;;;15.48;45.50
35694;BME280;21812;55.536;37.664;2023-05-29T05:03:31;100155.41;;;15.72;51.95
35694;BME280;21812;55.536;37.664;2023-05-29T05:06:00;100147.72;;;15.89;47.28
35694;BME280;21812;55.536;37.664;2023-05-29T05:08:30;100156.38;;;15.97;49.79
35694;BME280;21812;55.536;37.664;2023-05-29T05:10:59;100157.66;;;15.88;45.88
35694;BME280;21812;55.536;37.664;2023-05-29T05:13:26;100159.34;;;15.76;50.94
35694;BME280;21812;55.536;37.664;2023-05-29T05:15:53;100158.09;;;15.85;46.13
35694;BME280;21812;55.536;37.664;2023-05-29T05:18:19;100151.47;;;15.81;43.92
35694;BME280;21812;55.536;37.664;2023-05-29T05:20:53;100156.81;;;15.94;46.38
35694;BME280;21812;55.536;37.664;2023-05-29T05:23:18;100154.91;;;16.01;55.14
35694;BME280;21812;55.536;37.664;2023-05-29T05:25:44;100158.53;;;16.20;56.09
35694;BME280;21812;55.536;37.664;2023-05-29T05:28:10;100158.38;;;16.09;42.70
35694;BME280;21812;55.536;37.664;2023-05-29T05:30:36;100154.31;;;15.99;43.15
35694;BME280;21812;55.536;37.664;2023-05-29T05:33:02;100156.75;;;16.01;51.28
35694;BME280;21812;55.536;37.664;2023-05-29T05:35:27;100163.13;;;16.13;43.29
35694;BME280;21812;55.536;37.664;2023-05-29T05:37:53;100156.25;;;16.24;43.42
35694;BME280;21812;55.536;37.664;2023-05-29T05:40:20;100161.44;;;16.51;56.00
35694;BME280;21812;55.536;37.664;2023-05-29T05:42:55;100153.41;;;16.44;41.46
35694;BME280;21812;55.536;37.664;2023-05-29T05:45:32;100167.28;;;16.48;43.15
35694;BME280;21812;55.536;37.664;2023-05-29T05:47:59;100161.22;;;16.52;43.72
35694;BME280;21812;55.536;37.664;2023-05-29T05:50:24;100165.78;;;16.52;38.04
35694;BME280;21812;55.536;37.664;2023-05-29T05:52:51;100167.97;;;16.68;53.05
35694;BME280;21812;55.536;37.664;2023-05-29T05:55:17;100168.19;;;16.60;36.90
35694;BME280;21812;55.536;37.664;2023-05-29T05:57:42;100169.53;;;16.51;37.67
35694;BME280;21812;55.536;37.664;2023-05-29T06:00:09;100170.00;;;16.41;35.86
35694;BME280;21812;55.536;37.664;2023-05-29T06:02:42;100159.47;;;16.33;35.76
35694;BME280;21812;55.536;37.664;2023-05-29T06:05:12;100162.00;;;16.28;35.13
35694;BME280;21812;55.536;37.664;2023-05-29T06:07:38;100167.44;;;16.21;35.36
35694;BME280;21812;55.536;37.664;2023-05-29T06:10:04;100169.53;;;16.19;36.14
35694;BME280;21812;55.536;37.664;2023-05-29T06:12:30;100176.78;;;16.18;34.60
35694;BME280;21812;55.536;37.664;2023-05-29T06:15:07;100178.63;;;16.18;34.17
35694;BME280;21812;55.536;37.664;2023-05-29T06:17:33;100181.94;;;16.20;33.76
35694;BME280;21812;55.536;37.664;2023-05-29T06:20:02;100177.78;;;16.24;33.73
35694;BME280;21812;55.536;37.664;2023-05-29T06:22:30;100178.16;;;16.28;34.24
35694;BME280;21812;55.536;37.664;2023-05-29T06:24:56;100181.50;;;16.30;34.23
35694;BME280;21812;55.536;37.664;2023-05-29T06:27:22;100175.72;;;16.26;33.02
35694;BME280;21812;55.536;37.664;2023-05-29T06:29:51;100181.09;;;16.26;33.75
35694;BME280;21812;55.536;37.664;2023-05-29T06:32:17;100179.81;;;16.29;34.27
35694;BME280;21812;55.536;37.664;2023-05-29T06:34:43;100187.25;;;16.33;34.71
35694;BME280;21812;55.536;37.664;2023-05-29T06:37:09;100193.88;;;16.37;35.07
35694;BME280;21812;55.536;37.664;2023-05-29T06:39:34;100188.50;;;16.37;34.62
35694;BME280;21812;55.536;37.664;2023-05-29T06:42:00;100189.72;;;16.41;34.29
35694;BME280;21812;55.536;37.664;2023-05-29T06:44:26;100195.25;;;16.47;35.10
35694;BME280;21812;55.536;37.664;2023-05-29T06:46:53;100190.50;;;16.49;33.90
35694;BME280;21812;55.536;37.664;2023-05-29T06:49:19;100192.75;;;16.52;34.24
35694;BME280;21812;55.536;37.664;2023-05-29T06:51:45;100192.31;;;16.55;34.60
35694;BME280;21812;55.536;37.664;2023-05-29T06:54:22;100197.84;;;16.60;33.94
35694;BME280;21812;55.536;37.664;2023-05-29T06:56:48;100192.84;;;16.64;33.25
35694;BME280;21812;55.536;37.664;2023-05-29T06:59:14;100194.91;;;16.68;33.71
35694;BME280;21812;55.536;37.664;2023-05-29T07:01:57;100196.31;;;16.77;33.87
35694;BME280;21812;55.536;37.664;2023-05-29T07:04:22;100192.38;;;16.73;33.27
35694;BME280;21812;55.536;37.664;2023-05-29T07:06:48;100182.84;;;16.71;33.22
35694;BME280;21812;55.536;37.664;2023-05-29T07:09:14;100190.72;;;16.72;34.20
35694;BME280;21812;55.536;37.664;2023-05-29T07:11:40;100198.16;;;16.77;34.58
35694;BME280;21812;55.536;37.664;2023-05-29T07:14:05;100200.84;;;16.84;34.91
35694;BME280;21812;55.536;37.664;2023-05-29T07:16:33;100202.28;;;16.86;32.84
35694;BME280;21812;55.536;37.664;2023-05-29T07:19:02;100194.78;;;16.88;33.17
35694;BME280;21812;55.536;37.664;2023-05-29T07:21:33;100195.16;;;16.92;33.49
35694;BME280;21812;55.536;37.664;2023-05-29T07:23:59;100204.31;;;16.91;33.23
35694;BME280;21812;55.536;37.664;2023-05-29T07:26:25;100207.16;;;16.96;33.68
35694;BME280;21812;55.536;37.664;2023-05-29T07:28:51;100198.44;;;17.00;32.67
35694;BME280;21812;55.536;37.664;2023-05-29T07:31:18;100201.50;;;17.04;32.84
35694;BME280;21812;55.536;37.664;2023-05-29T07:33:45;100198.56;;;17.06;33.31
35694;BME280;21812;55.536;37.664;2023-05-29T07:36:15;100190.44;;;17.12;32.80
35694;BME280;21812;55.536;37.664;2023-05-29T07:38:41;100194.13;;;17.18;34.07
35694;BME280;21812;55.536;37.664;2023-05-29T07:41:07;100189.09;;;17.22;33.32
35694;BME280;21812;55.536;37.664;2023-05-29T07:43:36;100191.94;;;17.27;33.95
35694;BME280;21812;55.536;37.664;2023-05-29T07:46:05;100185.91;;;17.31;33.14
35694;BME280;21812;55.536;37.664;2023-05-29T07:48:31;100184.41;;;17.35;33.56
35694;BME280;21812;55.536;37.664;2023-05-29T07:50:58;100199.31;;;17.38;33.37
35694;BME280;21812;55.536;37.664;2023-05-29T07:53:27;100194.16;;;17.36;33.38
35694;BME280;21812;55.536;37.664;2023-05-29T07:55:53;100195.56;;;17.39;33.73
35694;BME280;21812;55.536;37.664;2023-05-29T07:58:19;100194.06;;;17.43;32.62
35694;BME280;21812;55.536;37.664;2023-05-29T08:00:46;100203.84;;;17.44;32.27
35694;BME280;21812;55.536;37.664;2023-05-29T08:03:13;100200.06;;;17.45;32.27
35694;BME280;21812;55.536;37.664;2023-05-29T08:06:18;100200.06;;;17.45;32.35
35694;BME280;21812;55.536;37.664;2023-05-29T08:08:45;100192.44;;;17.42;32.17
35694;BME280;21812;55.536;37.664;2023-05-29T08:11:11;100199.63;;;17.48;32.96
35694;BME280;21812;55.536;37.664;2023-05-29T08:13:37;100201.22;;;17.56;32.91
35694;BME280;21812;55.536;37.664;2023-05-29T08:16:03;100208.63;;;17.61;32.00
35694;BME280;21812;55.536;37.664;2023-05-29T08:18:30;100195.13;;;17.61;31.71
35694;BME280;21812;55.536;37.664;2023-05-29T08:20:56;100195.72;;;17.63;32.02
35694;BME280;21812;55.536;37.664;2023-05-29T08:23:22;100194.00;;;17.68;31.92
35694;BME280;21812;55.536;37.664;2023-05-29T08:25:48;100175.47;;;17.72;32.28
35694;BME280;21812;55.536;37.664;2023-05-29T08:28:14;100188.31;;;17.76;32.28
35694;BME280;21812;55.536;37.664;2023-05-29T08:30:40;100182.66;;;17.78;32.15
35694;BME280;21812;55.536;37.664;2023-05-29T08:33:06;100184.94;;;17.81;31.27
35694;BME280;21812;55.536;37.664;2023-05-29T08:35:32;100172.50;;;17.80;32.36
35694;BME280;21812;55.536;37.664;2023-05-29T08:37:58;100178.19;;;17.90;32.64
35694;BME280;21812;55.536;37.664;2023-05-29T08:40:24;100182.69;;;17.96;31.98
35694;BME280;21812;55.536;37.664;2023-05-29T08:43:15;100183.34;;;18.10;32.50
35694;BME280;21812;55.536;37.664;2023-05-29T08:45:43;100176.88;;;18.11;32.16
35694;BME280;21812;55.536;37.664;2023-05-29T08:48:11;100154.75;;;18.03;31.00
35694;BME280;21812;55.536;37.664;2023-05-29T08:50:44;100168.69;;;18.18;30.91
35694;BME280;21812;55.536;37.664;2023-05-29T08:53:14;100141.53;;;18.13;30.98
35694;BME280;21812;55.536;37.664;2023-05-29T08:55:41;100165.13;;;18.36;31.56
35694;BME280;21812;55.536;37.664;2023-05-29T08:58:07;100155.47;;;18.40;32.76
35694;BME280;21812;55.536;37.664;2023-05-29T09:00:34;100162.56;;;18.53;31.71
35694;BME280;21812;55.536;37.664;2023-05-29T09:03:00;100165.75;;;18.62;31.18
35694;BME280;21812;55.536;37.664;2023-05-29T09:05:26;100157.78;;;18.67;31.55
35694;BME280;21812;55.536;37.664;2023-05-29T09:07:53;100154.47;;;18.65;30.54
35694;BME280;21812;55.536;37.664;2023-05-29T09:10:19;100155.91;;;18.79;31.65
35694;BME280;21812;55.536;37.664;2023-05-29T09:12:46;100168.31;;;18.87;31.32
35694;BME280;21812;55.536;37.664;2023-05-29T09:15:19;100150.31;;;18.92;31.50
35694;BME280;21812;55.536;37.664;2023-05-29T09:17:57;100148.66;;;19.03;31.27
35694;BME280;21812;55.536;37.664;2023-05-29T09:20:23;100145.72;;;19.17;31.06
35694;BME280;21812;55.536;37.664;2023-05-29T09:22:58;100113.81;;;19.19;31.25
35694;BME280;21812;55.536;37.664;2023-05-29T09:25:26;100145.66;;;19.52;31.34
35694;BME280;21812;55.536;37.664;2023-05-29T09:28:04;100137.84;;;19.67;30.65
35694;BME280;21812;55.536;37.664;2023-05-29T09:34:18;100135.47;;;19.83;29.96
35694;BME280;21812;55.536;37.664;2023-05-29T09:36:44;100129.31;;;19.87;30.93
35694;BME280;21812;55.536;37.664;2023-05-29T09:39:10;100118.94;;;19.96;30.38
35694;BME280;21812;55.536;37.664;2023-05-29T09:41:43;100121.44;;;20.15;30.91
35694;BME280;21812;55.536;37.664;2023-05-29T09:44:16;100123.59;;;20.29;30.21
35694;BME280;21812;55.536;37.664;2023-05-29T09:46:42;100112.84;;;20.35;29.93
35694;BME280;21812;55.536;37.664;2023-05-29T09:49:11;100114.56;;;20.41;29.83
35694;BME280;21812;55.536;37.664;2023-05-29T09:51:37;100113.09;;;20.50;29.51
35694;BME280;21812;55.536;37.664;2023-05-29T09:54:17;100122.09;;;20.67;29.65
35694;BME280;21812;55.536;37.664;2023-05-29T09:56:44;100127.50;;;20.84;28.36
35694;BME280;21812;55.536;37.664;2023-05-29T09:59:12;100109.56;;;21.00;28.86
35694;BME280;21812;55.536;37.664;2023-05-29T10:01:43;100080.97;;;20.93;27.77
35694;BME280;21812;55.536;37.664;2023-05-29T10:04:12;100105.19;;;21.38;28.07
35694;BME280;21812;55.536;37.664;2023-05-29T10:06:41;100114.78;;;21.63;27.29
35694;BME280;21812;55.536;37.664;2023-05-29T10:09:12;100082.50;;;21.72;28.39
35694;BME280;21812;55.536;37.664;2023-05-29T10:11:42;100101.81;;;21.97;28.93
35694;BME280;21812;55.536;37.664;2023-05-29T10:14:10;100099.56;;;22.16;28.94
35694;BME280;21812;55.536;37.664;2023-05-29T10:16:42;100088.28;;;22.30;26.29
35694;BME280;21812;55.536;37.664;2023-05-29T10:19:13;100103.50;;;22.63;26.29
35694;BME280;21812;55.536;37.664;2023-05-29T10:21:41;100097.41;;;22.88;25.85
35694;BME280;21812;55.536;37.664;2023-05-29T10:24:10;100079.75;;;22.91;26.70
35694;BME280;21812;55.536;37.664;2023-05-29T10:26:39;100100.94;;;23.21;28.51
35694;BME280;21812;55.536;37.664;2023-05-29T10:32:16;100098.94;;;23.69;25.05
35694;BME280;21812;55.536;37.664;2023-05-29T10:34:43;100090.03;;;23.94;24.17
35694;BME280;21812;55.536;37.664;2023-05-29T10:40:08;100063.84;;;23.98;27.07
35694;BME280;21812;55.536;37.664;2023-05-29T10:42:46;100084.59;;;24.25;24.48
35694;BME280;21812;55.536;37.664;2023-05-29T10:50:37;100084.84;;;25.06;23.27
35694;BME280;21812;55.536;37.664;2023-05-29T10:53:08;100075.75;;;25.36;22.91
35694;BME280;21812;55.536;37.664;2023-05-29T10:55:38;100072.09;;;25.56;23.90
35694;BME280;21812;55.536;37.664;2023-05-29T10:58:08;100057.28;;;25.62;23.62
35694;BME280;21812;55.536;37.664;2023-05-29T11:00:40;100059.81;;;25.98;23.21
35694;BME280;21812;55.536;37.664;2023-05-29T11:03:09;100067.34;;;26.51;24.59
35694;BME280;21812;55.536;37.664;2023-05-29T11:08:54;100068.66;;;26.88;21.37
35694;BME280;21812;55.536;37.664;2023-05-29T11:11:33;100060.09;;;26.95;21.47
35694;BME280;21812;55.536;37.664;2023-05-29T11:14:10;100068.25;;;27.24;20.89
35694;BME280;21812;55.536;37.664;2023-05-29T11:16:36;100059.97;;;27.53;20.44
35694;BME280;21812;55.536;37.664;2023-05-29T11:19:07;100042.44;;;27.68;19.77
35694;BME280;21812;55.536;37.664;2023-05-29T11:21:52;100050.69;;;28.06;19.95
35694;BME280;21812;55.536;37.664;2023-05-29T11:24:25;100060.53;;;28.26;19.08
35694;BME280;21812;55.536;37.664;2023-05-29T11:26:53;100058.63;;;28.40;19.72
35694;BME280;21812;55.536;37.664;2023-05-29T11:29:23;100035.22;;;28.29;19.83
35694;BME280;21812;55.536;37.664;2023-05-29T11:32:06;100043.03;;;28.55;20.58
35694;BME280;21812;55.536;37.664;2023-05-29T11:34:38;100030.88;;;28.42;20.27
35694;BME280;21812;55.536;37.664;2023-05-29T11:37:04;100033.59;;;28.61;21.07
35694;BME280;21812;55.536;37.664;2023-05-29T11:39:30;100032.41;;;29.22;20.64
35694;BME280;21812;55.536;37.664;2023-05-29T11:42:00;100017.31;;;29.34;20.12
35694;BME280;21812;55.536;37.664;2023-05-29T11:44:26;100022.72;;;29.89;19.83
35694;BME280;21812;55.536;37.664;2023-05-29T11:47:05;100020.50;;;30.23;19.17
35694;BME280;21812;55.536;37.664;2023-05-29T11:49:33;100025.94;;;30.36;18.70
35694;BME280;21812;55.536;37.664;2023-05-29T11:54:33;100010.78;;;30.88;17.03
35694;BME280;21812;55.536;37.664;2023-05-29T11:57:00;100035.38;;;31.15;17.83
35694;BME280;21812;55.536;37.664;2023-05-29T11:59:29;100005.88;;;31.25;18.46
35694;BME280;21812;55.536;37.664;2023-05-29T12:01:55;100018.63;;;31.61;17.77
35694;BME280;21812;55.536;37.664;2023-05-29T12:04:21;100014.69;;;31.79;16.77
35694;BME280;21812;55.536;37.664;2023-05-29T12:06:47;100013.56;;;31.71;17.89
35694;BME280;21812;55.536;37.664;2023-05-29T12:09:29;100026.06;;;31.86;17.31
35694;BME280;21812;55.536;37.664;2023-05-29T12:12:02;99995.72;;;31.95;17.10
35694;BME280;21812;55.536;37.664;2023-05-29T12:14:28;100011.91;;;32.23;16.31
35694;BME280;21812;55.536;37.664;2023-05-29T12:16:55;100009.53;;;32.98;17.22
35694;BME280;21812;55.536;37.664;2023-05-29T12:19:20;99997.25;;;32.87;17.52
35694;BME280;21812;55.536;37.664;2023-05-29T12:21:46;100016.03;;;33.02;17.17
35694;BME280;21812;55.536;37.664;2023-05-29T12:24:12;100010.69;;;32.97;16.01
35694;BME280;21812;55.536;37.664;2023-05-29T12:26:39;100004.97;;;33.32;16.42
35694;BME280;21812;55.536;37.664;2023-05-29T12:29:05;99999.44;;;33.02;17.38
35694;BME280;21812;55.536;37.664;2023-05-29T12:31:32;99997.50;;;32.64;16.48
35694;BME280;21812;55.536;37.664;2023-05-29T12:34:07;99994.28;;;32.92;15.82
35694;BME280;21812;55.536;37.664;2023-05-29T12:36:33;99994.63;;;33.41;15.87
35694;BME280;21812;55.536;37.664;2023-05-29T12:38:59;100000.72;;;33.56;15.70
35694;BME280;21812;55.536;37.664;2023-05-29T12:41:28;99995.44;;;33.21;16.04
35694;BME280;21812;55.536;37.664;2023-05-29T12:43:57;100014.69;;;33.08;14.66
35694;BME280;21812;55.536;37.664;2023-05-29T12:46:27;99999.63;;;33.48;14.68
35694;BME280;21812;55.536;37.664;2023-05-29T12:48:54;100004.84;;;33.92;14.62
35694;BME280;21812;55.536;37.664;2023-05-29T12:51:24;100010.00;;;34.14;14.71
35694;BME280;21812;55.536;37.664;2023-05-29T12:53:50;100001.66;;;33.81;15.13
35694;BME280;21812;55.536;37.664;2023-05-29T12:56:19;99992.84;;;33.66;15.01
35694;BME280;21812;55.536;37.664;2023-05-29T12:58:45;99997.47;;;33.11;16.09
35694;BME280;21812;55.536;37.664;2023-05-29T13:01:13;100002.63;;;33.64;14.66
35694;BME280;21812;55.536;37.664;2023-05-29T13:03:40;99994.06;;;33.78;14.79
35694;BME280;21812;55.536;37.664;2023-05-29T13:06:06;99993.63;;;34.21;15.16
35694;BME280;21812;55.536;37.664;2023-05-29T13:08:32;100001.22;;;34.12;14.04
35694;BME280;21812;55.536;37.664;2023-05-29T13:10:58;99999.31;;;34.04;14.28
35694;BME280;21812;55.536;37.664;2023-05-29T13:13:24;100005.03;;;33.86;13.91
35694;BME280;21812;55.536;37.664;2023-05-29T13:15:50;99993.50;;;33.84;13.44
35694;BME280;21812;55.536;37.664;2023-05-29T13:18:15;99996.81;;;33.78;13.97
35694;BME280;21812;55.536;37.664;2023-05-29T13:20:41;100001.81;;;33.42;14.37